createdAt,value
2022-10-23T00:29:33.781Z,13.58
2022-10-23T00:49:34.478Z,13.18
2022-10-23T01:09:33.722Z,12.86
2022-10-23T02:29:33.594Z,13.47
2022-10-23T02:49:33.552Z,13.12
2022-10-23T03:09:33.534Z,12.71
2022-10-23T03:29:33.501Z,12.51
2022-10-23T03:49:33.471Z,12.21
2022-10-23T04:09:33.446Z,11.91
2022-10-23T04:49:33.362Z,11.61
2022-10-23T05:49:33.280Z,12.45
2022-10-23T06:09:33.258Z,12.68
2022-10-23T06:29:33.218Z,12.95
2022-10-23T06:49:33.197Z,13.17
2022-10-23T07:09:33.174Z,13.42
2022-10-23T07:29:33.163Z,13.47
2022-10-23T07:49:33.103Z,13.72
2022-10-23T08:09:33.058Z,14.33
2022-10-23T08:49:33.007Z,16.07
2022-10-23T09:09:32.970Z,16.83
2022-10-23T09:29:32.998Z,17.11
2022-10-23T10:49:32.781Z,18.65
2022-10-23T11:09:32.757Z,18.87
2022-10-23T11:49:32.683Z,19.44
2022-10-23T12:09:32.634Z,19.7
2022-10-23T13:29:32.508Z,21.17
2022-10-23T13:49:32.469Z,20.75
2022-10-23T14:09:32.439Z,20.52
2022-10-23T14:29:32.398Z,20.29
2022-10-23T14:49:32.366Z,20.03
2022-10-23T15:09:32.342Z,19.93
2022-10-23T15:49:32.258Z,19.23
2022-10-23T16:09:32.218Z,18.27
2022-10-23T16:29:32.196Z,17.77
2022-10-23T16:49:32.164Z,17.17
2022-10-23T17:09:32.130Z,16.79
2022-10-23T17:29:32.074Z,16.51
2022-10-23T17:49:32.054Z,16.14
2022-10-23T18:09:32.017Z,15.98
2022-10-23T18:49:31.941Z,16.06
2022-10-23T19:09:31.915Z,16.06
2022-10-23T19:29:31.872Z,16.12
2022-10-23T19:49:31.891Z,16.38
2022-10-23T20:09:31.816Z,16.56
2022-10-23T20:29:31.784Z,16.92
2022-10-23T21:29:31.721Z,16.74
2022-10-23T21:49:31.640Z,16.12
2022-10-23T22:09:31.618Z,15.9
2022-10-23T22:29:31.630Z,15.98
2022-10-23T22:49:31.543Z,16.14
2022-10-23T23:09:31.509Z,16.23
2022-10-23T23:49:31.459Z,16.36
